createdAt,value
2017-11-10T00:03:40.423Z,100571.58
2017-11-10T00:06:45.564Z,100562.77
2017-11-10T00:09:50.502Z,100562.56
2017-11-10T00:12:56.914Z,100567.91
2017-11-10T00:16:03.502Z,100553.67
2017-11-10T00:19:05.745Z,100517.11
2017-11-10T00:22:09.011Z,100511.98
2017-11-10T00:25:14.052Z,100532.30
2017-11-10T00:28:19.167Z,100524.69
2017-11-10T00:31:22.429Z,100518.71
2017-11-10T00:34:28.519Z,100514.78
2017-11-10T00:37:32.745Z,100539.52
2017-11-10T00:40:38.628Z,100546.51
2017-11-10T00:43:44.093Z,100538.66
2017-11-10T00:46:47.672Z,100538.48
2017-11-10T00:49:50.907Z,100525.89
2017-11-10T00:52:55.285Z,100543.08
2017-11-10T00:55:58.873Z,100561.45
2017-11-10T00:59:02.871Z,100567.94
2017-11-10T01:02:07.339Z,100553.54
2017-11-10T01:05:11.369Z,100524.70
2017-11-10T01:08:14.859Z,100506.19
2017-11-10T01:11:16.312Z,100478.27
2017-11-10T01:14:19.485Z,100470.87
2017-11-10T01:17:20.916Z,100464.84
2017-11-10T01:20:22.317Z,100461.06
2017-11-10T01:23:23.700Z,100441.03
2017-11-10T01:26:27.072Z,100456.46
2017-11-10T01:29:29.181Z,100453.97
2017-11-10T01:32:30.599Z,100471.19
2017-11-10T01:35:32.772Z,100477.25
2017-11-10T01:38:34.990Z,100472.37
2017-11-10T01:41:36.372Z,100469.78
2017-11-10T01:44:37.932Z,100472.62
2017-11-10T01:47:39.317Z,100468.73
2017-11-10T01:50:40.770Z,100470.91
2017-11-10T01:53:42.173Z,100464.37
2017-11-10T01:56:43.663Z,100453.38
2017-11-10T01:59:45.812Z,100446.38
2017-11-10T02:02:48.068Z,100443.51
2017-11-10T02:05:49.512Z,100431.13
2017-11-10T02:08:50.949Z,100413.14
2017-11-10T02:11:52.444Z,100422.39
2017-11-10T02:14:54.604Z,100411.02
2017-11-10T02:17:56.017Z,100417.34
2017-11-10T02:20:57.565Z,100397.88
2017-11-10T02:23:58.988Z,100384.48
2017-11-10T02:27:01.125Z,100388.80
2017-11-10T02:30:02.583Z,100396.66
2017-11-10T02:33:04.033Z,100397.33
2017-11-10T02:36:06.268Z,100400.24
2017-11-10T02:39:07.688Z,100405.05
2017-11-10T02:42:09.094Z,100394.78
2017-11-10T02:45:12.462Z,100390.55
2017-11-10T02:48:13.908Z,100373.19
2017-11-10T02:51:15.355Z,100375.94
2017-11-10T02:54:16.798Z,100379.40
2017-11-10T02:57:18.254Z,100368.47
2017-11-10T03:00:19.639Z,100359.52
2017-11-10T03:03:21.071Z,100365.99
2017-11-10T03:06:22.575Z,100353.03
2017-11-10T03:09:23.989Z,100354.64
2017-11-10T03:12:25.464Z,100340.93
2017-11-10T03:15:27.631Z,100340.00
2017-11-10T03:18:29.199Z,100331.59
2017-11-10T03:21:30.644Z,100326.56
2017-11-10T03:24:32.099Z,100314.62
2017-11-10T03:27:33.516Z,100308.66
2017-11-10T03:30:34.989Z,100306.48
2017-11-10T03:33:36.416Z,100302.69
2017-11-10T03:36:37.863Z,100310.86
2017-11-10T03:39:39.247Z,100303.44
2017-11-10T03:42:41.380Z,100304.84
2017-11-10T03:45:42.806Z,100305.27
2017-11-10T03:51:53.042Z,100272.57
2017-11-10T03:54:54.487Z,100280.49
2017-11-10T03:57:56.020Z,100283.45
2017-11-10T04:00:57.463Z,100274.48
2017-11-10T04:03:58.896Z,100274.57
2017-11-10T04:07:01.117Z,100274.79
2017-11-10T04:10:02.552Z,100262.26
2017-11-10T04:13:03.997Z,100259.17
2017-11-10T04:16:05.428Z,100278.59
2017-11-10T04:19:07.676Z,100262.61
2017-11-10T04:22:09.163Z,100262.82
2017-11-10T04:25:10.553Z,100263.92
2017-11-10T04:28:11.989Z,100257.00
2017-11-10T04:31:13.385Z,100231.06
2017-11-10T04:34:14.800Z,100244.72
2017-11-10T04:37:16.207Z,100244.98
2017-11-10T04:40:18.363Z,100233.23
2017-11-10T04:43:19.827Z,100240.70
2017-11-10T04:46:21.223Z,100234.16
2017-11-10T04:49:23.391Z,100226.69
2017-11-10T04:52:24.793Z,100233.26
2017-11-10T04:55:26.977Z,100241.76
2017-11-10T04:58:29.203Z,100229.75
2017-11-10T05:01:31.422Z,100237.61
2017-11-10T05:04:32.828Z,100229.55
2017-11-10T05:07:34.372Z,100236.47
2017-11-10T05:10:35.839Z,100224.08
2017-11-10T05:13:37.252Z,100210.85
2017-11-10T05:16:38.694Z,100210.13
2017-11-10T05:19:40.079Z,100202.94
2017-11-10T05:22:41.575Z,100197.23
2017-11-10T05:25:43.712Z,100186.08
2017-11-10T05:28:45.172Z,100190.61
2017-11-10T05:31:46.578Z,100171.81
2017-11-10T05:34:48.000Z,100164.31
2017-11-10T05:37:50.196Z,100163.47
2017-11-10T05:40:51.607Z,100155.16
2017-11-10T05:43:53.051Z,100152.73
2017-11-10T05:46:54.469Z,100154.20
2017-11-10T05:49:55.933Z,100151.57
2017-11-10T05:52:57.384Z,100144.00
2017-11-10T05:55:59.571Z,100149.38
2017-11-10T05:59:01.041Z,100140.77
2017-11-10T06:02:09.525Z,100144.36
2017-11-10T06:05:10.944Z,100150.45
2017-11-10T06:08:12.340Z,100139.97
2017-11-10T06:11:13.804Z,100136.77
2017-11-10T06:14:15.204Z,100139.50
2017-11-10T06:17:16.704Z,100140.23
2017-11-10T06:20:18.148Z,100130.78
2017-11-10T06:23:19.617Z,100119.45
2017-11-10T06:26:21.088Z,100105.02
2017-11-10T06:29:23.265Z,100111.97
2017-11-10T06:32:25.427Z,100103.80
2017-11-10T06:35:27.630Z,100105.26
2017-11-10T06:38:29.031Z,100122.25
2017-11-10T06:41:30.443Z,100108.20
2017-11-10T06:44:31.867Z,100119.56
2017-11-10T06:47:33.253Z,100112.88
2017-11-10T06:50:34.711Z,100117.66
2017-11-10T06:53:36.172Z,100096.95
2017-11-10T06:56:37.573Z,100112.68
2017-11-10T06:59:39.072Z,100105.03
2017-11-10T07:02:41.227Z,100118.75
2017-11-10T07:05:42.605Z,100102.75
2017-11-10T07:08:44.037Z,100101.58
2017-11-10T07:11:45.420Z,100099.73
2017-11-10T07:14:46.823Z,100090.07
2017-11-10T07:17:48.170Z,100081.24
2017-11-10T07:20:49.619Z,100082.48
2017-11-10T07:23:51.072Z,100081.45
2017-11-10T07:26:52.516Z,100078.22
2017-11-10T07:29:53.900Z,100080.47
2017-11-10T07:32:55.306Z,100078.27
2017-11-10T07:35:57.444Z,100086.33
2017-11-10T07:38:58.860Z,100075.76
2017-11-10T07:42:00.299Z,100080.59
2017-11-10T07:45:01.719Z,100065.53
2017-11-10T07:48:03.921Z,100059.06
2017-11-10T07:51:05.288Z,100066.55
2017-11-10T07:54:06.732Z,100050.50
2017-11-10T07:57:08.125Z,100048.55
2017-11-10T08:00:09.524Z,100041.30
2017-11-10T08:03:10.888Z,100043.14
2017-11-10T08:06:12.260Z,100015.50
2017-11-10T08:09:13.633Z,100007.80
2017-11-10T08:12:15.043Z,100015.86
2017-11-10T08:15:16.486Z,100031.39
2017-11-10T08:18:17.828Z,100021.52
2017-11-10T08:21:19.262Z,100019.58
2017-11-10T08:24:21.385Z,100014.54
2017-11-10T08:27:23.510Z,100017.72
2017-11-10T08:30:24.939Z,100016.35
2017-11-10T08:33:27.088Z,100017.81
2017-11-10T08:36:28.537Z,100015.83
2017-11-10T08:39:29.955Z,100001.67
2017-11-10T08:42:31.378Z,100000.23
2017-11-10T08:45:33.510Z,100013.36
2017-11-10T08:48:35.021Z,99996.70
2017-11-10T08:51:36.714Z,99994.74
2017-11-10T08:54:38.116Z,99995.83
2017-11-10T08:57:39.519Z,99992.40
2017-11-10T09:00:40.889Z,99989.96
2017-11-10T09:03:42.274Z,99982.72
2017-11-10T09:06:43.628Z,99989.09
2017-11-10T09:09:45.013Z,99975.34
2017-11-10T09:12:46.354Z,99975.45
2017-11-10T09:15:49.108Z,99971.17
2017-11-10T09:18:50.443Z,99963.28
2017-11-10T09:21:52.583Z,99964.55
2017-11-10T09:24:53.905Z,99955.42
2017-11-10T09:28:05.219Z,99952.94
2017-11-10T09:31:18.492Z,99946.62
2017-11-10T09:38:06.900Z,99941.35
2017-11-10T09:41:14.294Z,99934.78
2017-11-10T09:44:21.775Z,99930.73
2017-11-10T09:47:29.186Z,99933.12
2017-11-10T09:50:36.783Z,99924.80
2017-11-10T09:53:51.990Z,99933.39
2017-11-10T09:56:57.311Z,99933.37
2017-11-10T10:00:13.565Z,99934.50
2017-11-10T10:03:20.923Z,99920.13
2017-11-10T10:06:23.131Z,99910.53
2017-11-10T10:09:30.408Z,99914.88
2017-11-10T10:12:35.640Z,99903.82
2017-11-10T10:15:45.722Z,99891.05
2017-11-10T10:22:29.598Z,99872.31
2017-11-10T10:25:30.996Z,99874.09
2017-11-10T10:28:32.382Z,99873.18
2017-11-10T10:31:33.702Z,99862.95
2017-11-10T10:34:42.762Z,99853.98
2017-11-10T10:37:44.257Z,99850.83
2017-11-10T10:40:45.671Z,99858.48
2017-11-10T10:43:47.057Z,99845.00
2017-11-10T10:46:48.408Z,99840.64
2017-11-10T10:49:49.815Z,99834.26
2017-11-10T10:52:51.148Z,99836.50
2017-11-10T10:55:53.238Z,99824.34
2017-11-10T10:58:54.542Z,99816.25
2017-11-10T11:01:55.929Z,99817.35
2017-11-10T11:04:57.273Z,99818.57
2017-11-10T11:07:59.322Z,99810.75
2017-11-10T11:11:07.591Z,99800.20
2017-11-10T11:14:08.920Z,99798.19
2017-11-10T11:17:10.275Z,99780.89
2017-11-10T11:20:11.622Z,99782.82
2017-11-10T11:23:13.075Z,99763.38
2017-11-10T11:26:14.412Z,99761.02
2017-11-10T11:29:15.763Z,99749.08
2017-11-10T11:32:17.110Z,99746.86
2017-11-10T11:35:18.452Z,99738.59
2017-11-10T11:38:20.527Z,99732.02
2017-11-10T11:41:21.810Z,99734.25
2017-11-10T11:44:23.153Z,99730.23
2017-11-10T11:47:24.514Z,99723.61
2017-11-10T11:50:26.691Z,99710.52
2017-11-10T11:53:28.064Z,99704.28
2017-11-10T11:56:30.525Z,99691.74
2017-11-10T11:59:32.851Z,99705.09
2017-11-10T12:02:34.271Z,99693.19
2017-11-10T12:05:35.996Z,99691.14
2017-11-10T12:08:38.505Z,99688.58
2017-11-10T12:11:40.018Z,99674.42
2017-11-10T12:14:41.900Z,99671.53
2017-11-10T12:17:44.696Z,99660.92
2017-11-10T12:20:46.905Z,99656.53
2017-11-10T12:23:48.357Z,99660.09
2017-11-10T12:26:50.306Z,99656.56
2017-11-10T12:29:52.013Z,99647.53
2017-11-10T12:32:53.526Z,99648.76
2017-11-10T12:35:55.875Z,99647.44
2017-11-10T12:38:58.302Z,99648.91
2017-11-10T12:41:59.714Z,99660.44
2017-11-10T12:45:02.032Z,99662.73
2017-11-10T12:48:04.184Z,99658.75
2017-11-10T12:51:07.903Z,99652.57
2017-11-10T12:54:11.503Z,99661.16
2017-11-10T12:57:14.294Z,99658.34
2017-11-10T13:00:17.747Z,99658.26
2017-11-10T13:03:19.923Z,99669.55
2017-11-10T13:06:22.131Z,99668.68
2017-11-10T13:09:23.491Z,99656.45
2017-11-10T13:12:24.821Z,99664.52
2017-11-10T13:15:26.215Z,99649.94
2017-11-10T13:18:27.558Z,99647.73
2017-11-10T13:21:28.920Z,99647.20
2017-11-10T13:24:30.282Z,99655.14
2017-11-10T13:27:31.606Z,99654.23
2017-11-10T13:30:32.911Z,99647.04
2017-11-10T13:33:34.257Z,99673.17
2017-11-10T13:36:35.565Z,99666.45
2017-11-10T13:39:36.865Z,99646.73
2017-11-10T13:42:38.240Z,99651.09
2017-11-10T13:45:39.523Z,99639.80
2017-11-10T13:48:40.854Z,99646.48
2017-11-10T13:51:42.190Z,99641.97
2017-11-10T13:54:43.531Z,99648.28
2017-11-10T13:57:44.829Z,99653.31
2017-11-10T14:00:46.188Z,99642.56
2017-11-10T14:03:48.279Z,99633.31
2017-11-10T14:06:49.592Z,99637.05
2017-11-10T14:09:50.945Z,99632.34
2017-11-10T14:12:52.240Z,99619.00
2017-11-10T14:15:53.615Z,99647.05
2017-11-10T14:18:54.951Z,99657.91
2017-11-10T14:21:56.316Z,99666.58
2017-11-10T14:24:57.629Z,99692.08
2017-11-10T14:27:58.949Z,99685.12
2017-11-10T14:31:00.373Z,99688.41
2017-11-10T14:34:01.677Z,99710.69
2017-11-10T14:37:03.102Z,99701.22
2017-11-10T14:40:05.178Z,99698.38
2017-11-10T14:43:14.398Z,99706.80
2017-11-10T14:46:15.808Z,99707.58
2017-11-10T14:49:17.151Z,99717.20
2017-11-10T14:52:18.534Z,99717.40
2017-11-10T14:55:19.839Z,99713.38
2017-11-10T14:58:21.192Z,99718.80
2017-11-10T15:01:22.532Z,99722.30
2017-11-10T15:04:23.910Z,99726.55
2017-11-10T15:07:25.233Z,99732.30
2017-11-10T15:10:26.569Z,99720.80
2017-11-10T15:13:28.681Z,99738.20
2017-11-10T15:16:30.031Z,99759.03
2017-11-10T15:19:31.555Z,99764.31
2017-11-10T15:22:33.008Z,99767.67
2017-11-10T15:25:34.305Z,99765.60
2017-11-10T15:28:35.772Z,99764.16
2017-11-10T15:31:37.178Z,99763.14
2017-11-10T15:34:38.570Z,99765.35
2017-11-10T15:37:39.982Z,99779.27
2017-11-10T15:40:41.277Z,99783.19
2017-11-10T15:43:42.615Z,99795.73
2017-11-10T15:46:43.947Z,99804.38
2017-11-10T15:49:45.410Z,99802.09
2017-11-10T15:52:53.819Z,99810.01
2017-11-10T15:55:55.161Z,99815.47
2017-11-10T15:58:56.852Z,99815.91
2017-11-10T16:01:58.963Z,99832.21
2017-11-10T16:05:00.322Z,99854.85
2017-11-10T16:08:02.282Z,99843.81
2017-11-10T16:11:06.098Z,99874.17
2017-11-10T16:14:07.732Z,99853.75
2017-11-10T16:17:10.079Z,99843.52
2017-11-10T16:20:11.709Z,99872.83
2017-11-10T16:23:13.316Z,99868.48
2017-11-10T16:26:14.783Z,99878.30
2017-11-10T16:29:16.172Z,99880.23
2017-11-10T16:32:17.831Z,99875.52
2017-11-10T16:35:20.900Z,99880.18
2017-11-10T16:38:23.765Z,99876.98
2017-11-10T16:41:25.575Z,99887.00
2017-11-10T16:44:26.970Z,99900.23
2017-11-10T16:47:29.654Z,99906.16
2017-11-10T16:50:32.113Z,99908.85
2017-11-10T16:53:34.999Z,99913.85
2017-11-10T16:56:36.441Z,99916.83
2017-11-10T16:59:39.169Z,99921.33
2017-11-10T17:02:42.018Z,99918.34
2017-11-10T17:05:43.615Z,99928.26
2017-11-10T17:08:45.247Z,99922.20
2017-11-10T17:11:47.342Z,99928.34
2017-11-10T17:14:50.336Z,99930.70
2017-11-10T17:17:51.706Z,99930.83
2017-11-10T17:20:54.366Z,99941.69
2017-11-10T17:23:56.963Z,99934.47
2017-11-10T17:26:58.311Z,99937.72
2017-11-10T17:30:14.692Z,99946.42
2017-11-10T17:33:17.200Z,99942.98
2017-11-10T17:36:18.629Z,99951.22
2017-11-10T17:39:21.348Z,99943.02
2017-11-10T17:42:23.630Z,99955.56
2017-11-10T17:45:25.102Z,99949.05
2017-11-10T17:48:26.479Z,99949.90
2017-11-10T17:51:28.293Z,99963.11
2017-11-10T17:54:31.610Z,99952.77
2017-11-10T17:57:33.429Z,99959.44
2017-11-10T18:00:34.852Z,99950.24
2017-11-10T18:03:38.097Z,99954.25
2017-11-10T18:06:39.561Z,99962.16
2017-11-10T18:09:42.263Z,99966.45
2017-11-10T18:12:44.646Z,99975.69
2017-11-10T18:15:46.899Z,99982.01
2017-11-10T18:18:50.267Z,99982.36
2017-11-10T18:21:52.078Z,99992.52
2017-11-10T18:24:54.381Z,99985.57
2017-11-10T18:27:57.564Z,99985.63
2017-11-10T18:31:00.232Z,99980.36
2017-11-10T18:34:06.205Z,99985.93
2017-11-10T18:37:08.183Z,99981.84
2017-11-10T18:40:09.644Z,99994.84
2017-11-10T18:43:11.485Z,99994.64
2017-11-10T18:46:13.694Z,99992.98
2017-11-10T18:49:21.917Z,99991.30
2017-11-10T18:52:23.812Z,99969.71
2017-11-10T18:55:31.651Z,99986.05
2017-11-10T18:58:33.068Z,99984.06
2017-11-10T19:01:34.489Z,99977.23
2017-11-10T19:04:36.200Z,99986.69
2017-11-10T19:07:40.876Z,99991.53
2017-11-10T19:10:42.448Z,99990.56
2017-11-10T19:13:45.466Z,99989.34
2017-11-10T19:16:48.321Z,99989.27
2017-11-10T19:19:51.233Z,99993.01
2017-11-10T19:22:52.718Z,99989.88
2017-11-10T19:25:54.697Z,99995.56
2017-11-10T19:28:57.340Z,100001.91
2017-11-10T19:31:59.993Z,99997.64
2017-11-10T19:35:01.677Z,99995.32
2017-11-10T19:38:03.604Z,99997.15
2017-11-10T19:41:05.267Z,100006.26
2017-11-10T19:44:07.282Z,100003.28
2017-11-10T19:50:53.907Z,99998.59
2017-11-10T19:53:55.372Z,99988.19
2017-11-10T19:56:56.714Z,100009.00
2017-11-10T19:59:58.105Z,100003.89
2017-11-10T20:02:59.556Z,100006.19
2017-11-10T20:06:01.681Z,99999.23
2017-11-10T20:09:03.261Z,100011.97
2017-11-10T20:12:05.368Z,100003.44
2017-11-10T20:15:06.747Z,100002.44
2017-11-10T20:18:08.188Z,100000.97
2017-11-10T20:21:09.825Z,100008.76
2017-11-10T20:24:12.049Z,100001.80
2017-11-10T20:27:13.400Z,100014.72
2017-11-10T20:30:15.527Z,100020.47
2017-11-10T20:33:17.685Z,100014.07
2017-11-10T20:36:19.152Z,100007.66
2017-11-10T20:39:20.637Z,100001.95
2017-11-10T20:42:22.078Z,100007.55
2017-11-10T20:45:23.504Z,100008.39
2017-11-10T20:48:24.967Z,99996.80
2017-11-10T20:51:26.337Z,100001.92
2017-11-10T20:54:27.689Z,100008.88
2017-11-10T20:57:29.221Z,100021.20
2017-11-10T21:00:30.681Z,100001.78
2017-11-10T21:03:32.114Z,100013.03
2017-11-10T21:06:34.219Z,100007.36
2017-11-10T21:09:35.603Z,100008.91
2017-11-10T21:12:37.133Z,100013.36
2017-11-10T21:15:38.517Z,100005.06
2017-11-10T21:18:40.878Z,100000.47
2017-11-10T21:21:42.282Z,99999.42
2017-11-10T21:24:43.841Z,99991.52
2017-11-10T21:27:45.201Z,99995.27
2017-11-10T21:30:46.638Z,99987.98
2017-11-10T21:33:48.288Z,99986.57
2017-11-10T21:36:53.671Z,99989.63
2017-11-10T21:39:55.225Z,99984.89
2017-11-10T21:42:56.825Z,99986.06
2017-11-10T21:45:59.089Z,99991.66
2017-11-10T21:49:01.238Z,99982.26
2017-11-10T21:52:02.734Z,99981.89
2017-11-10T21:55:04.326Z,99978.73
2017-11-10T21:58:05.735Z,99975.52
2017-11-10T22:01:07.921Z,99983.27
2017-11-10T22:04:09.526Z,99990.14
2017-11-10T22:07:10.912Z,99987.47
2017-11-10T22:10:12.281Z,99994.92
2017-11-10T22:13:13.652Z,99993.89
2017-11-10T22:16:15.053Z,99989.14
2017-11-10T22:19:17.164Z,99986.55
2017-11-10T22:22:18.580Z,99981.37
2017-11-10T22:25:20.713Z,99982.89
2017-11-10T22:28:22.114Z,99981.68
2017-11-10T22:31:23.537Z,99985.70
2017-11-10T22:34:25.655Z,99989.65
2017-11-10T22:37:27.060Z,99971.00
2017-11-10T22:40:29.165Z,99962.63
2017-11-10T22:43:30.532Z,99968.92
2017-11-10T22:46:32.104Z,99982.14
2017-11-10T22:49:33.524Z,99985.01
2017-11-10T22:52:35.050Z,99976.19
2017-11-10T22:55:37.205Z,99974.25
2017-11-10T22:58:39.358Z,99975.23
2017-11-10T23:01:40.988Z,99993.73
2017-11-10T23:04:42.690Z,99997.36
2017-11-10T23:07:44.897Z,99987.32
2017-11-10T23:10:46.320Z,99993.53
2017-11-10T23:13:48.427Z,99991.72
2017-11-10T23:16:49.855Z,100004.39
2017-11-10T23:19:51.352Z,99978.87
2017-11-10T23:22:52.805Z,99993.86
2017-11-10T23:25:54.244Z,99974.61
2017-11-10T23:28:55.597Z,99969.39
2017-11-10T23:31:56.986Z,99971.61
2017-11-10T23:34:58.381Z,99964.09
2017-11-10T23:37:59.809Z,99964.69
2017-11-10T23:41:01.927Z,99959.48
2017-11-10T23:44:03.352Z,99960.23
2017-11-10T23:47:04.909Z,99957.09
2017-11-10T23:50:06.301Z,99958.83
2017-11-10T23:53:07.716Z,99951.44
2017-11-10T23:56:09.050Z,99954.66
2017-11-10T23:59:10.503Z,99954.43
